createdAt,value
2018-12-01T00:01:56.366Z,57.38
2018-12-01T00:05:00.954Z,57.81
2018-12-01T00:08:05.786Z,58.43
2018-12-01T00:11:10.374Z,58.75
2018-12-01T00:14:14.937Z,57.73
2018-12-01T00:17:19.514Z,57.74
2018-12-01T00:20:25.457Z,57.74
2018-12-01T00:23:30.142Z,58.04
2018-12-01T00:26:34.727Z,57.78
2018-12-01T00:29:39.560Z,57.80
2018-12-01T00:32:44.718Z,57.93
2018-12-01T00:35:49.342Z,59.01
2018-12-01T00:38:54.023Z,60.06
2018-12-01T00:41:58.600Z,58.96
2018-12-01T00:45:03.190Z,60.70
2018-12-01T00:48:07.750Z,59.20
2018-12-01T00:51:12.330Z,59.79
2018-12-01T00:54:16.859Z,58.10
2018-12-01T00:57:21.506Z,59.79
2018-12-01T01:00:26.804Z,58.79
2018-12-01T01:03:31.422Z,59.83
2018-12-01T01:06:35.975Z,58.61
2018-12-01T01:09:40.589Z,61.00
2018-12-01T01:12:45.162Z,58.85
2018-12-01T01:15:49.758Z,60.97
2018-12-01T01:18:54.390Z,59.06
2018-12-01T01:21:58.982Z,60.32
2018-12-01T01:25:03.561Z,58.96
2018-12-01T01:28:08.314Z,61.65
2018-12-01T01:31:12.953Z,61.31
2018-12-01T01:34:17.529Z,62.25
2018-12-01T01:37:22.202Z,61.15
2018-12-01T01:40:26.745Z,61.85
2018-12-01T01:43:31.381Z,60.54
2018-12-01T01:46:35.902Z,60.88
2018-12-01T01:49:40.483Z,58.94
2018-12-01T01:52:45.145Z,60.23
2018-12-01T01:55:49.721Z,60.22
2018-12-01T01:58:54.394Z,59.68
2018-12-01T02:01:58.946Z,59.46
2018-12-01T02:05:03.494Z,59.77
2018-12-01T02:08:08.100Z,60.49
2018-12-01T02:11:12.690Z,59.97
2018-12-01T02:14:17.457Z,58.32
2018-12-01T02:17:21.991Z,57.14
2018-12-01T02:20:26.534Z,58.66
2018-12-01T02:23:31.189Z,57.54
2018-12-01T02:26:35.819Z,57.15
2018-12-01T02:29:40.468Z,57.08
2018-12-01T02:32:45.008Z,57.53
2018-12-01T02:35:49.609Z,56.49
2018-12-01T02:38:54.446Z,55.94
2018-12-01T02:41:59.058Z,55.20
2018-12-01T02:45:14.659Z,55.06
2018-12-01T02:48:19.202Z,54.68
2018-12-01T02:51:23.757Z,54.55
2018-12-01T02:54:28.326Z,53.46
2018-12-01T02:57:32.897Z,54.28
2018-12-01T03:00:44.360Z,51.75
2018-12-01T03:03:48.953Z,52.02
2018-12-01T03:06:53.487Z,52.48
2018-12-01T03:09:58.093Z,51.59
2018-12-01T03:13:02.651Z,52.36
2018-12-01T03:16:07.369Z,52.58
2018-12-01T03:19:11.929Z,53.96
2018-12-01T03:22:16.521Z,53.94
2018-12-01T03:25:22.821Z,53.66
2018-12-01T03:28:27.385Z,54.30
2018-12-01T03:31:31.964Z,54.18
2018-12-01T03:34:36.555Z,53.40
2018-12-01T03:37:43.787Z,52.61
2018-12-01T03:40:48.437Z,53.36
2018-12-01T03:43:53.052Z,53.56
2018-12-01T03:46:57.676Z,53.83
2018-12-01T03:50:02.228Z,53.94
2018-12-01T03:53:07.591Z,54.07
2018-12-01T03:56:12.297Z,53.89
2018-12-01T03:59:16.973Z,53.03
2018-12-01T04:02:21.517Z,52.92
2018-12-01T04:05:26.126Z,52.38
2018-12-01T04:08:30.674Z,52.48
2018-12-01T04:11:35.321Z,51.48
2018-12-01T04:14:40.033Z,51.81
2018-12-01T04:17:44.602Z,51.41
2018-12-01T04:20:49.146Z,50.66
2018-12-01T04:23:53.726Z,51.36
2018-12-01T04:26:59.246Z,51.51
2018-12-01T04:30:04.409Z,52.22
2018-12-01T04:33:09.133Z,52.01
2018-12-01T04:36:13.736Z,51.15
2018-12-01T04:39:18.723Z,51.13
2018-12-01T04:42:23.463Z,51.01
2018-12-01T04:45:28.029Z,50.30
2018-12-01T04:48:32.629Z,49.55
2018-12-01T04:51:37.240Z,49.59
2018-12-01T04:54:41.802Z,49.80
2018-12-01T04:57:46.401Z,50.79
2018-12-01T05:00:50.972Z,51.31
2018-12-01T05:03:55.518Z,51.29
2018-12-01T05:07:00.205Z,51.18
2018-12-01T05:10:06.528Z,50.47
2018-12-01T05:13:11.138Z,50.61
2018-12-01T05:16:15.680Z,50.25
2018-12-01T05:19:20.253Z,49.91
2018-12-01T05:22:24.888Z,50.74
2018-12-01T05:25:29.479Z,50.74
2018-12-01T05:28:34.009Z,50.09
2018-12-01T05:31:38.560Z,51.13
2018-12-01T05:34:43.149Z,52.92
2018-12-01T05:37:47.698Z,53.50
2018-12-01T05:40:52.789Z,54.09
2018-12-01T05:43:57.419Z,52.85
2018-12-01T05:47:02.022Z,52.78
2018-12-01T05:50:07.869Z,53.22
2018-12-01T05:53:12.498Z,52.51
2018-12-01T05:56:17.177Z,51.41
2018-12-01T05:59:21.733Z,50.47
2018-12-01T06:02:26.274Z,49.62
2018-12-01T06:05:30.892Z,50.37
2018-12-01T06:08:35.414Z,50.07
2018-12-01T06:11:40.025Z,48.69
2018-12-01T06:14:44.660Z,50.59
2018-12-01T06:17:49.208Z,49.94
2018-12-01T06:20:53.753Z,48.83
2018-12-01T06:23:58.378Z,50.16
2018-12-01T06:27:02.918Z,51.07
2018-12-01T06:30:17.190Z,49.76
2018-12-01T06:33:21.741Z,50.09
2018-12-01T06:36:26.360Z,49.85
2018-12-01T06:39:30.899Z,49.74
2018-12-01T06:42:35.431Z,50.90
2018-12-01T06:45:39.958Z,49.29
2018-12-01T06:48:44.630Z,49.30
2018-12-01T06:51:49.233Z,49.18
2018-12-01T06:54:53.855Z,51.92
2018-12-01T06:57:58.398Z,50.65
2018-12-01T07:01:03.008Z,50.34
2018-12-01T07:04:07.562Z,49.23
2018-12-01T07:07:12.114Z,49.13
2018-12-01T07:10:18.890Z,48.50
2018-12-01T07:13:23.453Z,47.01
2018-12-01T07:16:28.024Z,48.08
2018-12-01T07:19:32.609Z,48.04
2018-12-01T07:22:37.167Z,46.53
2018-12-01T07:25:41.869Z,45.88
2018-12-01T07:28:46.410Z,44.86
2018-12-01T07:31:51.029Z,46.27
2018-12-01T07:34:55.607Z,45.61
2018-12-01T07:38:01.214Z,46.72
2018-12-01T07:41:06.294Z,47.04
2018-12-01T07:44:10.914Z,46.97
2018-12-01T07:47:15.518Z,48.57
2018-12-01T07:50:20.701Z,48.96
2018-12-01T07:53:25.250Z,49.73
2018-12-01T07:56:31.057Z,49.26
2018-12-01T07:59:35.657Z,49.19
2018-12-01T08:02:40.421Z,48.80
2018-12-01T08:05:45.004Z,49.28
2018-12-01T08:08:49.625Z,49.05
2018-12-01T08:11:54.179Z,47.79
2018-12-01T08:14:58.750Z,49.97
2018-12-01T08:18:04.432Z,50.49
2018-12-01T08:21:09.020Z,51.73
2018-12-01T08:24:13.590Z,53.13
2018-12-01T08:27:18.185Z,51.68
2018-12-01T08:30:24.130Z,50.63
2018-12-01T08:33:28.761Z,50.69
2018-12-01T08:36:33.635Z,50.41
2018-12-01T08:39:38.807Z,49.74
2018-12-01T08:42:43.921Z,47.94
2018-12-01T08:45:49.053Z,46.89
2018-12-01T08:48:53.950Z,46.34
2018-12-01T08:51:58.903Z,44.82
2018-12-01T08:55:03.492Z,43.52
2018-12-01T08:58:08.094Z,44.03
2018-12-01T09:01:12.653Z,44.30
2018-12-01T09:04:17.238Z,45.46
2018-12-01T09:07:21.838Z,45.38
2018-12-01T09:10:26.402Z,44.88
2018-12-01T09:13:31.504Z,44.31
2018-12-01T09:16:36.440Z,43.07
2018-12-01T09:19:41.047Z,42.53
2018-12-01T09:22:46.419Z,44.85
2018-12-01T09:25:50.954Z,44.04
2018-12-01T09:28:55.613Z,44.29
2018-12-01T09:32:00.210Z,45.06
2018-12-01T09:35:04.853Z,47.03
2018-12-01T09:38:09.426Z,46.19
2018-12-01T09:41:14.007Z,46.58
2018-12-01T09:44:18.561Z,47.39
2018-12-01T09:47:23.166Z,47.43
2018-12-01T09:50:27.796Z,47.06
2018-12-01T09:53:32.405Z,46.69
2018-12-01T09:56:36.958Z,45.53
2018-12-01T09:59:41.570Z,44.66
2018-12-01T10:02:47.897Z,43.88
2018-12-01T10:05:52.488Z,44.64
2018-12-01T10:08:57.926Z,45.76
2018-12-01T10:12:02.570Z,46.19
2018-12-01T10:15:11.314Z,44.30
2018-12-01T10:18:17.050Z,42.41
2018-12-01T10:21:21.869Z,42.77
2018-12-01T10:24:26.558Z,42.17
2018-12-01T10:27:31.182Z,41.36
2018-12-01T10:30:35.768Z,41.34
2018-12-01T10:33:40.509Z,40.80
2018-12-01T10:36:46.532Z,40.31
2018-12-01T10:39:51.433Z,40.91
2018-12-01T10:42:56.019Z,40.54
2018-12-01T10:46:00.611Z,43.00
2018-12-01T10:49:05.337Z,42.35
2018-12-01T10:52:10.222Z,40.73
2018-12-01T10:55:33.935Z,40.38
2018-12-01T10:58:38.636Z,41.81
2018-12-01T11:01:48.335Z,40.57
2018-12-01T11:04:52.988Z,43.08
2018-12-01T11:07:57.524Z,43.33
2018-12-01T11:11:02.157Z,42.78
2018-12-01T11:14:06.837Z,44.37
2018-12-01T11:17:11.442Z,43.18
2018-12-01T11:20:16.012Z,44.30
2018-12-01T11:23:20.662Z,43.26
2018-12-01T11:26:25.290Z,43.27
2018-12-01T11:29:29.889Z,45.18
2018-12-01T11:32:34.523Z,45.60
2018-12-01T11:35:39.205Z,44.53
2018-12-01T11:38:43.775Z,44.87
2018-12-01T11:41:48.389Z,44.65
2018-12-01T11:44:56.869Z,43.65
2018-12-01T11:47:57.651Z,44.18
2018-12-01T11:51:02.275Z,44.51
2018-12-01T11:54:06.874Z,46.25
2018-12-01T11:57:11.509Z,45.57
2018-12-01T12:00:17.019Z,46.31
2018-12-01T12:03:21.743Z,45.39
2018-12-01T12:06:26.374Z,45.96
2018-12-01T12:09:31.029Z,44.78
2018-12-01T12:12:35.721Z,45.99
2018-12-01T12:15:40.397Z,46.55
2018-12-01T12:18:45.119Z,46.43
2018-12-01T12:21:49.750Z,47.01
2018-12-01T12:24:54.293Z,46.10
2018-12-01T12:27:59.084Z,47.90
2018-12-01T12:31:03.695Z,45.62
2018-12-01T12:34:08.313Z,46.52
2018-12-01T12:37:12.943Z,45.38
2018-12-01T12:40:27.034Z,46.60
2018-12-01T12:43:31.621Z,45.29
2018-12-01T12:46:36.241Z,47.34
2018-12-01T12:49:40.902Z,45.88
2018-12-01T12:52:46.570Z,47.19
2018-12-01T12:55:51.186Z,44.52
2018-12-01T12:58:55.796Z,45.32
2018-12-01T13:02:00.350Z,43.32
2018-12-01T13:05:06.276Z,44.04
2018-12-01T13:08:11.658Z,42.80
2018-12-01T13:11:16.266Z,43.29
2018-12-01T13:14:21.058Z,44.50
2018-12-01T13:17:25.607Z,44.87
2018-12-01T13:20:30.142Z,44.71
2018-12-01T13:23:34.801Z,44.20
2018-12-01T13:26:39.458Z,44.96
2018-12-01T13:29:44.051Z,46.34
2018-12-01T13:32:48.806Z,45.93
2018-12-01T13:35:53.429Z,46.81
2018-12-01T13:38:58.336Z,47.08
2018-12-01T13:42:03.003Z,48.06
2018-12-01T13:45:09.930Z,47.94
2018-12-01T13:48:14.577Z,47.35
2018-12-01T13:51:19.280Z,47.18
2018-12-01T13:54:23.927Z,48.09
2018-12-01T13:57:28.487Z,47.59
2018-12-01T14:00:33.133Z,47.06
2018-12-01T14:03:38.334Z,46.86
2018-12-01T14:06:42.355Z,48.41
2018-12-01T14:09:46.928Z,48.24
2018-12-01T14:12:52.906Z,48.41
2018-12-01T14:15:57.466Z,48.00
2018-12-01T14:19:02.068Z,48.33
2018-12-01T14:22:06.614Z,48.79
2018-12-01T14:25:12.091Z,47.90
2018-12-01T14:28:16.678Z,48.81
2018-12-01T14:31:21.263Z,49.11
2018-12-01T14:34:25.848Z,49.24
2018-12-01T14:37:30.414Z,49.87
2018-12-01T14:40:35.110Z,49.74
2018-12-01T14:43:39.686Z,50.22
2018-12-01T14:46:44.511Z,49.93
2018-12-01T14:49:49.162Z,49.82
2018-12-01T14:52:53.741Z,50.01
2018-12-01T14:55:58.338Z,50.88
2018-12-01T14:59:02.966Z,51.56
2018-12-01T15:02:07.821Z,51.02
2018-12-01T15:05:12.541Z,51.77
2018-12-01T15:08:17.117Z,51.29
2018-12-01T15:11:21.818Z,51.80
2018-12-01T15:14:26.468Z,50.98
2018-12-01T15:17:30.993Z,50.70
2018-12-01T15:20:35.826Z,51.20
2018-12-01T15:23:40.380Z,51.01
2018-12-01T15:26:45.001Z,51.85
2018-12-01T15:29:49.581Z,52.06
2018-12-01T15:33:11.466Z,51.83
2018-12-01T15:36:16.528Z,53.37
2018-12-01T15:39:28.246Z,52.79
2018-12-01T15:42:32.830Z,52.38
2018-12-01T15:45:37.499Z,52.79
2018-12-01T15:48:42.175Z,52.40
2018-12-01T15:51:46.850Z,53.02
2018-12-01T15:54:51.502Z,52.51
2018-12-01T15:57:56.085Z,53.48
2018-12-01T16:01:00.763Z,52.61
2018-12-01T16:04:05.905Z,52.56
2018-12-01T16:07:10.505Z,52.63
2018-12-01T16:10:16.540Z,52.51
2018-12-01T16:13:22.502Z,53.00
2018-12-01T16:16:27.190Z,52.88
2018-12-01T16:19:31.792Z,52.70
2018-12-01T16:22:36.530Z,53.48
2018-12-01T16:25:41.147Z,52.99
2018-12-01T16:28:45.740Z,53.20
2018-12-01T16:31:50.343Z,53.05
2018-12-01T16:34:55.177Z,52.96
2018-12-01T16:37:59.880Z,53.40
2018-12-01T16:41:36.816Z,53.24
2018-12-01T16:44:41.457Z,53.34
2018-12-01T16:47:46.128Z,53.60
2018-12-01T16:50:50.910Z,53.16
2018-12-01T16:53:55.673Z,53.31
2018-12-01T16:57:00.322Z,53.27
2018-12-01T17:00:08.483Z,54.25
2018-12-01T17:03:13.959Z,53.67
2018-12-01T17:06:19.708Z,53.38
2018-12-01T17:09:24.321Z,53.51
2018-12-01T17:12:28.992Z,53.16
2018-12-01T17:15:33.889Z,53.16
2018-12-01T17:18:38.546Z,52.60
2018-12-01T17:21:43.261Z,52.95
2018-12-01T17:24:47.969Z,53.08
2018-12-01T17:27:53.704Z,52.87
2018-12-01T17:30:58.297Z,53.32
2018-12-01T17:34:02.918Z,53.11
2018-12-01T17:37:07.535Z,53.27
2018-12-01T17:40:41.230Z,53.04
2018-12-01T17:43:50.092Z,53.75
2018-12-01T17:46:55.987Z,53.04
2018-12-01T17:50:00.642Z,53.42
2018-12-01T17:53:10.493Z,55.14
2018-12-01T17:56:18.072Z,53.87
2018-12-01T17:59:22.716Z,53.88
2018-12-01T18:02:27.398Z,54.06
2018-12-01T18:05:42.202Z,54.64
2018-12-01T18:08:46.777Z,55.87
2018-12-01T18:11:51.495Z,54.61
2018-12-01T18:14:56.318Z,54.41
2018-12-01T18:18:01.064Z,54.58
2018-12-01T18:21:05.840Z,54.24
2018-12-01T18:24:10.543Z,54.33
2018-12-01T18:27:15.221Z,54.19
2018-12-01T18:30:24.571Z,53.84
2018-12-01T18:33:31.069Z,54.28
2018-12-01T18:36:35.706Z,54.24
2018-12-01T18:39:40.361Z,54.55
2018-12-01T18:42:45.006Z,54.12
2018-12-01T18:45:52.341Z,55.65
2018-12-01T18:48:57.875Z,54.99
2018-12-01T18:52:02.538Z,54.73
2018-12-01T18:55:09.765Z,54.74
2018-12-01T18:58:14.493Z,55.88
2018-12-01T19:01:19.066Z,56.19
2018-12-01T19:04:24.179Z,56.00
2018-12-01T19:07:28.802Z,56.17
2018-12-01T19:10:34.300Z,56.71
2018-12-01T19:13:38.994Z,56.67
2018-12-01T19:16:43.661Z,56.75
2018-12-01T19:19:49.233Z,56.34
2018-12-01T19:22:56.654Z,56.69
2018-12-01T19:26:01.749Z,56.99
2018-12-01T19:29:07.086Z,56.71
2018-12-01T19:32:11.802Z,57.31
2018-12-01T19:35:17.222Z,57.19
2018-12-01T19:38:27.995Z,57.06
2018-12-01T19:41:32.631Z,57.16
2018-12-01T19:44:37.260Z,57.34
2018-12-01T19:47:41.905Z,57.40
2018-12-01T19:50:46.566Z,57.23
2018-12-01T19:53:51.217Z,57.34
2018-12-01T19:56:55.850Z,57.77
2018-12-01T20:00:00.522Z,57.56
2018-12-01T20:03:07.098Z,57.57
2018-12-01T20:06:11.929Z,57.37
2018-12-01T20:09:16.587Z,57.49
2018-12-01T20:12:21.253Z,57.91
2018-12-01T20:15:29.594Z,58.51
2018-12-01T20:18:34.214Z,58.37
2018-12-01T20:21:38.838Z,58.71
2018-12-01T20:24:43.620Z,57.81
2018-12-01T20:27:48.247Z,58.23
2018-12-01T20:30:52.841Z,59.27
2018-12-01T20:33:59.300Z,58.64
2018-12-01T20:37:07.651Z,58.34
2018-12-01T20:40:15.923Z,58.50
2018-12-01T20:43:20.474Z,58.43
2018-12-01T20:46:25.165Z,59.20
2018-12-01T20:49:29.843Z,59.11
2018-12-01T20:52:34.417Z,59.25
2018-12-01T20:55:40.042Z,59.89
2018-12-01T20:58:44.621Z,60.57
2018-12-01T21:01:49.226Z,61.86
2018-12-01T21:04:53.786Z,61.06
2018-12-01T21:08:02.245Z,59.76
2018-12-01T21:11:04.897Z,59.73
2018-12-01T21:14:09.520Z,58.82
2018-12-01T21:17:14.209Z,59.33
2018-12-01T21:20:19.281Z,59.52
2018-12-01T21:23:23.843Z,59.73
2018-12-01T21:26:28.400Z,59.38
2018-12-01T21:29:33.067Z,61.61
2018-12-01T21:32:37.621Z,62.63
2018-12-01T21:35:42.306Z,61.42
2018-12-01T21:38:46.859Z,63.32
2018-12-01T21:41:51.509Z,62.13
2018-12-01T21:44:56.076Z,63.27
2018-12-01T21:48:00.626Z,61.32
2018-12-01T21:51:05.215Z,62.37
2018-12-01T21:54:09.791Z,63.67
2018-12-01T21:57:14.438Z,61.51
2018-12-01T22:00:22.250Z,59.94
2018-12-01T22:03:27.770Z,60.30
2018-12-01T22:06:32.385Z,60.24
2018-12-01T22:09:39.555Z,60.73
2018-12-01T22:12:44.383Z,62.47
2018-12-01T22:15:49.044Z,60.85
2018-12-01T22:18:53.614Z,59.76
2018-12-01T22:21:58.324Z,61.07
2018-12-01T22:25:03.030Z,60.89
2018-12-01T22:28:09.639Z,60.10
2018-12-01T22:31:14.345Z,59.69
2018-12-01T22:34:18.928Z,59.58
2018-12-01T22:37:23.495Z,60.47
2018-12-01T22:40:30.293Z,62.38
2018-12-01T22:43:34.878Z,61.79
2018-12-01T22:46:39.531Z,60.89
2018-12-01T22:49:44.175Z,61.21
2018-12-01T22:52:50.475Z,61.23
2018-12-01T22:55:55.108Z,61.15
2018-12-01T22:58:59.661Z,61.31
2018-12-01T23:02:04.420Z,60.89
2018-12-01T23:05:09.080Z,60.69
2018-12-01T23:08:17.152Z,60.61
2018-12-01T23:11:21.874Z,60.72
2018-12-01T23:14:26.525Z,62.05
2018-12-01T23:17:31.242Z,62.38
2018-12-01T23:20:35.911Z,62.11
2018-12-01T23:23:40.503Z,62.72
2018-12-01T23:26:45.163Z,61.69
2018-12-01T23:29:49.734Z,61.43
2018-12-01T23:32:59.533Z,61.07
2018-12-01T23:36:08.203Z,61.14
2018-12-01T23:39:14.105Z,61.50
2018-12-01T23:42:18.699Z,60.75
2018-12-01T23:45:23.663Z,60.45
2018-12-01T23:48:28.362Z,59.74
2018-12-01T23:51:32.929Z,59.74
2018-12-01T23:54:37.559Z,59.74
2018-12-01T23:57:42.205Z,60.82
